Athol, South Dakota
Current Conditions -  °F | °C
As of 8:53 AM on Monday 22 Dec 2014 (Local Time) from KABR Reporting Station
Moderate Fog Moderate Fog  
Wind Chill:   Ceiling: 200
Heat Index:   Visibility: 0.25mi
Dew Point:   Wind: 0mph
Humidity: 96%   Direction: NA
Pressure: 29.43"   Gusts: NA
Location:  45.027°N, 98.472°W
Report Text: KABR 221453Z AUTO 00000KT 1/4SM FG VV002 01/00 A2943 RMK AO2 SLP978 T00060000 51004
Loading
Personal Weather Stations






























Interactive Weather Map New forecast layout! Learn more

10-Day Weather Forecast

Advertisements
Track Severe Weather on mobile